Time;durP1;ratioP1;P1;durP2;ratioP2;P2;SDS_P1;SDS_P2;PMS_P1;PMS_P2;Temp;Humidity;BMP_temperature;BMP_pressure;BME280_temperature;BME280_humidity;BME280_pressure;Samples;Min_cycle;Max_cycle;Signal;HPM_P1;HPM_P2
2022/12/04 00:00:20;;;;;;;36.40;21.17;;;13.00;54.10;;;;;;4998308;28;20461;-79
2022/12/04 00:02:48;;;;;;;37.23;20.33;;;13.00;54.00;;;;;;4998931;28;20461;-79
2022/12/04 00:05:16;;;;;;;37.03;20.57;;;13.00;54.00;;;;;;4999346;28;20453;-79
2022/12/04 00:07:44;;;;;;;34.03;19.57;;;13.00;54.10;;;;;;4996318;28;20477;-79
2022/12/04 00:10:12;;;;;;;37.63;20.10;;;13.00;54.00;;;;;;4999095;28;20551;-79
2022/12/04 00:12:40;;;;;;;38.97;21.20;;;13.00;53.90;;;;;;5000107;28;20453;-79
2022/12/04 00:15:11;;;;;;;38.50;20.40;;;13.00;53.80;;;;;;4995925;28;20457;-79
2022/12/04 00:17:54;;;;;;;36.87;20.27;;;13.00;53.70;;;;;;5000050;28;20476;-79
2022/12/04 00:20:22;;;;;;;39.60;21.70;;;13.00;53.70;;;;;;4998666;28;20454;-78
2022/12/04 00:22:51;;;;;;;37.83;20.17;;;13.00;53.60;;;;;;4995192;28;20453;-78
2022/12/04 00:25:19;;;;;;;34.60;19.47;;;13.00;53.70;;;;;;4986056;28;20438;-78
2022/12/04 00:27:47;;;;;;;36.13;20.53;;;12.90;53.50;;;;;;4983122;28;20477;-78
2022/12/04 00:30:16;;;;;;;32.50;18.80;;;12.90;53.60;;;;;;4995644;28;20437;-78
2022/12/04 00:32:44;;;;;;;35.70;20.50;;;12.90;53.80;;;;;;4994467;28;20457;-78
2022/12/04 00:35:13;;;;;;;36.37;20.03;;;12.90;53.90;;;;;;4978486;28;20537;-78
2022/12/04 00:37:41;;;;;;;35.67;20.07;;;12.90;54.00;;;;;;4978452;28;20478;-78
2022/12/04 00:40:10;;;;;;;35.60;19.50;;;12.90;54.00;;;;;;4978060;28;20449;-78
2022/12/04 00:42:38;;;;;;;36.60;19.80;;;12.90;54.10;;;;;;4996705;28;20518;-79
2022/12/04 00:45:07;;;;;;;35.80;19.80;;;12.90;54.20;;;;;;4996733;28;20453;-79
2022/12/04 00:47:36;;;;;;;36.07;20.03;;;13.00;54.30;;;;;;4997597;28;20476;-79
2022/12/04 00:50:06;;;;;;;38.40;19.50;;;12.90;54.20;;;;;;4997392;28;20445;-79
2022/12/04 00:52:33;;;;;;;37.17;18.73;;;12.90;54.30;;;;;;4997374;28;20434;-79
2022/12/04 00:55:01;;;;;;;36.80;18.90;;;12.90;54.50;;;;;;4997770;28;20441;-79
2022/12/04 00:57:29;;;;;;;32.30;18.77;;;12.90;54.50;;;;;;4989425;28;20481;-79
2022/12/04 00:59:57;;;;;;;34.50;18.03;;;12.90;54.50;;;;;;4988680;28;20440;-79
2022/12/04 01:02:25;;;;;;;32.83;18.23;;;12.90;54.60;;;;;;4996557;28;20468;-78
2022/12/04 01:04:54;;;;;;;36.27;18.30;;;12.90;54.60;;;;;;4996322;28;20437;-79
2022/12/04 01:07:22;;;;;;;31.47;17.70;;;12.90;54.50;;;;;;4996196;28;20484;-78
2022/12/04 01:09:50;;;;;;;32.57;18.67;;;12.90;54.70;;;;;;4990054;28;20484;-79
2022/12/04 01:12:18;;;;;;;33.13;17.90;;;12.90;54.50;;;;;;4996331;28;20442;-79
2022/12/04 01:14:47;;;;;;;37.17;19.87;;;12.90;54.60;;;;;;4992312;28;20457;-79
2022/12/04 01:17:16;;;;;;;33.50;17.97;;;12.90;54.70;;;;;;4993195;28;20493;-78
2022/12/04 01:19:44;;;;;;;32.70;18.07;;;12.90;54.70;;;;;;4995937;28;20453;-79
2022/12/04 01:22:13;;;;;;;31.50;18.47;;;12.90;54.70;;;;;;4995978;28;20465;-78
2022/12/04 01:24:41;;;;;;;31.90;18.83;;;12.90;54.70;;;;;;4993278;28;20477;-78
2022/12/04 01:27:09;;;;;;;32.50;17.60;;;12.90;54.70;;;;;;4995834;28;20477;-79
2022/12/04 01:29:37;;;;;;;34.47;17.10;;;12.90;54.90;;;;;;4994627;28;20480;-78
2022/12/04 01:32:06;;;;;;;31.40;16.80;;;12.90;55.00;;;;;;4992688;28;20464;-78
2022/12/04 01:34:34;;;;;;;32.03;18.07;;;12.90;54.90;;;;;;4987806;28;20458;-79
2022/12/04 01:37:02;;;;;;;30.20;17.60;;;12.90;55.00;;;;;;4993817;28;20478;-78
2022/12/04 01:39:31;;;;;;;30.80;18.03;;;12.90;55.00;;;;;;4993566;28;20469;-79
2022/12/04 01:41:59;;;;;;;31.30;16.50;;;12.90;55.10;;;;;;4990270;28;20445;-78
2022/12/04 01:44:27;;;;;;;30.60;17.03;;;12.80;55.00;;;;;;4993559;28;20457;-80
2022/12/04 01:46:55;;;;;;;31.07;17.30;;;12.90;55.20;;;;;;4994447;28;20469;-80
2022/12/04 01:49:25;;;;;;;28.80;17.07;;;12.90;55.00;;;;;;4993935;28;20473;-79
2022/12/04 01:51:54;;;;;;;26.60;16.30;;;12.90;55.10;;;;;;4991438;28;20448;-79
2022/12/04 01:54:27;;;;;;;26.80;15.97;;;12.80;55.10;;;;;;4993013;28;20480;-79
2022/12/04 01:56:58;;;;;;;32.00;17.13;;;12.80;55.00;;;;;;4993159;28;20469;-79
2022/12/04 01:59:28;;;;;;;30.00;17.10;;;12.90;55.20;;;;;;4997948;28;20449;-80
2022/12/04 02:01:59;;;;;;;29.13;16.50;;;12.80;55.20;;;;;;4994846;28;20453;-79
2022/12/04 02:04:27;;;;;;;29.30;16.80;;;12.80;55.20;;;;;;4997684;28;20457;-79
2022/12/04 02:06:55;;;;;;;28.20;16.90;;;12.80;55.20;;;;;;4993415;28;20484;-79
2022/12/04 02:09:23;;;;;;;26.87;16.70;;;12.80;55.30;;;;;;4987928;28;20480;-79
2022/12/04 02:12:01;;;;;;;29.67;17.33;;;12.80;55.30;;;;;;4994910;28;20453;-80
2022/12/04 02:14:33;;;;;;;30.27;16.60;;;12.80;55.40;;;;;;4994658;28;20464;-80
2022/12/04 02:17:04;;;;;;;30.00;17.07;;;12.80;55.40;;;;;;4997155;28;21026;-79
2022/12/04 02:20:05;;;;;;;29.23;16.70;;;12.80;55.30;;;;;;4990241;28;20986;-79
2022/12/04 02:22:45;;;;;;;26.03;15.10;;;12.80;55.40;;;;;;4993099;28;20464;-80
2022/12/04 02:25:16;;;;;;;30.50;16.57;;;12.80;55.40;;;;;;4989697;28;20477;-80
2022/12/04 02:27:59;;;;;;;26.87;15.60;;;12.80;55.30;;;;;;5002483;28;20478;-80
2022/12/04 02:30:28;;;;;;;26.20;15.93;;;12.80;55.40;;;;;;4999828;28;20476;-80
2022/12/04 02:32:59;;;;;;;32.03;17.57;;;12.80;55.50;;;;;;5000475;28;20446;-80
2022/12/04 02:35:29;;;;;;;25.43;15.37;;;12.80;55.50;;;;;;4996761;28;20461;-80
2022/12/04 02:37:59;;;;;;;26.70;16.20;;;12.80;55.60;;;;;;4991380;28;20486;-80
2022/12/04 02:40:27;;;;;;;28.53;16.50;;;12.80;55.60;;;;;;4996244;28;20453;-79
2022/12/04 02:42:59;;;;;;;27.60;16.17;;;12.80;55.10;;;;;;4996352;28;20464;-81
2022/12/04 02:45:30;;;;;;;30.43;16.67;;;12.80;55.50;;;;;;4992492;28;20453;-80
2022/12/04 02:47:58;;;;;;;29.50;16.13;;;12.80;55.50;;;;;;4992204;28;20528;-79
2022/12/04 02:50:26;;;;;;;25.73;16.07;;;12.80;55.50;;;;;;4996729;28;20477;-79
2022/12/04 02:52:55;;;;;;;26.83;15.57;;;12.80;55.60;;;;;;4997805;28;20449;-79
2022/12/04 02:55:24;;;;;;;29.43;16.87;;;12.80;55.60;;;;;;4993396;28;20457;-79
2022/12/04 02:57:54;;;;;;;32.13;15.40;;;12.70;55.60;;;;;;4992433;28;20477;-80
2022/12/04 03:00:24;;;;;;;27.87;15.80;;;12.80;55.70;;;;;;4990439;28;20460;-80
2022/12/04 03:02:54;;;;;;;24.10;15.00;;;12.80;55.50;;;;;;4998432;28;20468;-80
2022/12/04 03:05:24;;;;;;;26.60;15.77;;;12.80;55.50;;;;;;4997056;28;20465;-80
2022/12/04 03:07:53;;;;;;;29.90;16.40;;;12.80;55.60;;;;;;4994331;28;20473;-80
2022/12/04 03:10:24;;;;;;;26.70;15.23;;;12.80;55.50;;;;;;4996414;28;20496;-79
2022/12/04 03:12:54;;;;;;;24.80;15.57;;;12.70;55.60;;;;;;4995741;28;20456;-80
2022/12/04 03:15:24;;;;;;;31.13;16.77;;;12.70;55.60;;;;;;4989654;28;20461;-80
2022/12/04 03:17:55;;;;;;;27.30;16.13;;;12.80;55.70;;;;;;4986847;28;20495;-80
2022/12/04 03:20:23;;;;;;;31.30;16.20;;;12.70;55.60;;;;;;4991755;28;20459;-80
2022/12/04 03:22:54;;;;;;;25.20;15.27;;;12.80;55.60;;;;;;4992061;28;20460;-80
2022/12/04 03:25:23;;;;;;;28.60;15.10;;;12.80;55.70;;;;;;4996172;28;20465;-80
2022/12/04 03:27:53;;;;;;;28.10;15.93;;;12.80;55.60;;;;;;4993643;28;20481;-79
2022/12/04 03:30:23;;;;;;;26.43;15.77;;;12.70;55.50;;;;;;4993648;28;20484;-80
2022/12/04 03:32:53;;;;;;;28.03;16.87;;;12.70;55.70;;;;;;4993727;28;20457;-80
2022/12/04 03:35:23;;;;;;;24.60;15.03;;;12.70;55.70;;;;;;4993333;28;20457;-80
2022/12/04 03:37:54;;;;;;;26.27;14.93;;;12.70;56.30;;;;;;4993344;28;20477;-80
2022/12/04 03:40:23;;;;;;;23.87;14.90;;;12.70;55.50;;;;;;4987245;28;20481;-80
2022/12/04 03:42:54;;;;;;;27.00;15.27;;;12.80;55.80;;;;;;4990723;28;20453;-79
2022/12/04 03:45:25;;;;;;;28.23;16.00;;;12.80;55.70;;;;;;4986831;28;20449;-80
2022/12/04 03:47:55;;;;;;;24.03;15.43;;;12.80;55.70;;;;;;4990718;28;20484;-80
2022/12/04 03:50:28;;;;;;;25.23;15.40;;;12.70;55.60;;;;;;4987812;28;20472;-80
2022/12/04 03:52:59;;;;;;;27.43;15.17;;;12.70;55.70;;;;;;4992156;28;20465;-80
2022/12/04 03:55:29;;;;;;;24.27;14.83;;;12.70;55.90;;;;;;4993066;28;20485;-80
2022/12/04 03:57:59;;;;;;;23.57;14.60;;;12.70;55.80;;;;;;4991692;28;20481;-80
2022/12/04 04:00:29;;;;;;;25.93;15.20;;;12.70;55.90;;;;;;4990215;28;20476;-79
2022/12/04 04:02:59;;;;;;;25.47;14.80;;;12.70;55.80;;;;;;4990466;28;20469;-80
2022/12/04 04:05:28;;;;;;;25.30;14.90;;;12.70;55.90;;;;;;4994283;28;20457;-80
2022/12/04 04:08:24;;;;;;;26.93;15.80;;;12.70;55.80;;;;;;4998278;28;20484;-80
2022/12/04 04:10:45;;;;;;;25.60;15.23;;;12.70;56.00;;;;;;4996472;28;20476;-80
2022/12/04 04:24:27;;;;;;;29.17;15.70;;;12.70;56.10;;;;;;4995961;28;20476;-79
2022/12/04 04:26:55;;;;;;;23.40;13.90;;;12.70;56.10;;;;;;4991597;28;20475;-79
2022/12/04 04:29:24;;;;;;;22.37;14.40;;;12.70;56.10;;;;;;4996539;28;20460;-80
2022/12/04 04:31:56;;;;;;;25.63;15.30;;;12.70;56.10;;;;;;4995974;28;20476;-80
2022/12/04 04:34:27;;;;;;;25.87;15.37;;;12.70;56.10;;;;;;4994894;28;20466;-79
2022/12/04 04:36:56;;;;;;;26.27;15.10;;;12.70;56.20;;;;;;4995634;28;20478;-80
2022/12/04 04:39:28;;;;;;;22.90;14.67;;;12.70;56.00;;;;;;4997104;28;20478;-80
2022/12/04 04:41:58;;;;;;;24.77;14.77;;;12.70;56.20;;;;;;4998675;28;20464;-79
2022/12/04 04:44:28;;;;;;;22.63;13.87;;;12.70;56.10;;;;;;4997042;28;20508;-80
2022/12/04 04:47:00;;;;;;;24.53;15.37;;;12.70;56.10;;;;;;4998944;28;20472;-80
2022/12/04 04:49:28;;;;;;;25.30;14.60;;;12.70;56.00;;;;;;4989734;28;20466;-79
2022/12/04 04:51:56;;;;;;;21.67;14.00;;;12.70;56.10;;;;;;4995348;28;20473;-80
2022/12/04 04:54:24;;;;;;;26.37;15.40;;;12.70;56.30;;;;;;4996403;28;20462;-80
2022/12/04 04:56:52;;;;;;;21.90;13.57;;;12.70;56.20;;;;;;4990025;28;20476;-79
2022/12/04 04:59:20;;;;;;;23.60;14.80;;;12.70;56.30;;;;;;4995549;28;20461;-80
2022/12/04 05:01:48;;;;;;;24.43;15.07;;;12.70;56.20;;;;;;4996872;28;20449;-79
2022/12/04 05:04:18;;;;;;;25.80;15.67;;;12.70;56.20;;;;;;4993514;28;20453;-79
2022/12/04 05:06:47;;;;;;;24.50;14.90;;;12.70;56.10;;;;;;4994967;28;20561;-78
2022/12/04 05:09:15;;;;;;;26.50;16.10;;;12.70;56.20;;;;;;4989926;28;20480;-78
2022/12/04 05:11:43;;;;;;;26.53;15.17;;;12.70;56.30;;;;;;4993963;28;20496;-78
2022/12/04 05:14:11;;;;;;;23.60;14.67;;;12.70;56.30;;;;;;4994087;28;20468;-78
2022/12/04 05:16:40;;;;;;;25.10;15.03;;;12.70;56.30;;;;;;4993024;28;20487;-78
2022/12/04 05:21:56;;;;;;;24.23;14.40;;;12.70;56.30;;;;;;4993441;28;20480;-78
2022/12/04 05:24:24;;;;;;;23.80;15.03;;;12.70;56.30;;;;;;4988282;28;20549;-79
2022/12/04 05:26:52;;;;;;;24.40;14.80;;;12.70;56.40;;;;;;4993253;28;20477;-79
2022/12/04 05:29:20;;;;;;;24.53;14.07;;;12.70;56.30;;;;;;4993895;28;20528;-79
2022/12/04 05:31:48;;;;;;;22.00;13.90;;;12.70;56.40;;;;;;5001632;28;20469;-79
2022/12/04 05:34:16;;;;;;;24.30;15.30;;;12.70;56.30;;;;;;4995817;28;20457;-79
2022/12/04 05:36:44;;;;;;;24.03;14.27;;;12.70;56.30;;;;;;4992666;28;20484;-79
2022/12/04 05:39:13;;;;;;;23.43;14.30;;;12.70;56.30;;;;;;4992147;28;20460;-78
2022/12/04 05:41:41;;;;;;;26.87;15.10;;;12.70;56.30;;;;;;4994327;28;20446;-79
2022/12/04 05:44:09;;;;;;;22.53;13.90;;;12.70;56.40;;;;;;4994778;28;20453;-78
2022/12/04 05:46:37;;;;;;;25.73;16.27;;;12.70;56.40;;;;;;4995150;28;20473;-76
2022/12/04 05:49:05;;;;;;;26.13;15.10;;;12.70;56.30;;;;;;4990660;28;20457;-79
2022/12/04 05:51:33;;;;;;;24.13;14.50;;;12.70;56.50;;;;;;4990320;28;20476;-79
2022/12/04 05:54:02;;;;;;;24.87;15.17;;;12.70;56.40;;;;;;4991710;28;20454;-79
2022/12/04 05:56:31;;;;;;;21.50;13.63;;;12.70;56.50;;;;;;4992197;28;20473;-78
2022/12/04 05:58:59;;;;;;;23.10;13.97;;;12.70;56.50;;;;;;4987569;28;20455;-79
2022/12/04 06:01:27;;;;;;;23.30;14.53;;;12.70;56.40;;;;;;4993828;28;20944;-79
2022/12/04 06:03:55;;;;;;;22.13;13.70;;;12.70;56.40;;;;;;4991870;28;20459;-79
2022/12/04 06:06:24;;;;;;;22.70;14.20;;;12.70;56.40;;;;;;4992477;28;20476;-79
2022/12/04 06:08:53;;;;;;;24.17;14.03;;;12.70;56.50;;;;;;4990278;28;20453;-79
2022/12/04 06:11:22;;;;;;;22.33;13.93;;;12.70;56.50;;;;;;4993220;28;20511;-79
2022/12/04 06:13:52;;;;;;;22.63;14.43;;;12.70;56.50;;;;;;4987094;28;20457;-77
2022/12/04 06:16:21;;;;;;;23.97;13.93;;;12.70;56.40;;;;;;4989514;28;20453;-79
2022/12/04 06:18:50;;;;;;;22.17;14.33;;;12.70;56.50;;;;;;4992212;28;20504;-79
2022/12/04 06:21:18;;;;;;;23.63;14.07;;;12.70;56.50;;;;;;4990949;28;20454;-79
2022/12/04 06:23:46;;;;;;;23.97;14.50;;;12.70;56.50;;;;;;4991891;28;20461;-79
2022/12/04 06:26:14;;;;;;;23.77;14.07;;;12.70;56.40;;;;;;4992976;28;20464;-79
2022/12/04 06:28:42;;;;;;;25.50;15.10;;;12.70;56.40;;;;;;4992214;28;20449;-79
2022/12/04 06:31:12;;;;;;;23.47;14.20;;;12.70;56.40;;;;;;4988458;28;20473;-80
2022/12/04 06:33:40;;;;;;;24.10;14.50;;;12.70;56.40;;;;;;4988654;28;20449;-79
2022/12/04 06:36:10;;;;;;;23.87;14.43;;;12.70;56.50;;;;;;4988988;28;20457;-79
2022/12/04 06:38:38;;;;;;;24.60;14.20;;;12.70;56.60;;;;;;4993408;28;20450;-78
2022/12/04 06:41:07;;;;;;;26.20;15.57;;;12.70;56.40;;;;;;4990855;28;20457;-79
2022/12/04 06:43:35;;;;;;;24.80;14.63;;;12.70;56.60;;;;;;4989181;28;20458;-79
2022/12/04 06:46:05;;;;;;;23.80;14.63;;;12.70;56.50;;;;;;4989848;28;20464;-79
2022/12/04 06:48:34;;;;;;;21.90;13.80;;;12.70;56.60;;;;;;4991819;28;20457;-77
2022/12/04 06:51:03;;;;;;;22.97;14.00;;;12.70;56.60;;;;;;4991610;28;20509;-78
2022/12/04 06:53:31;;;;;;;24.70;14.03;;;12.70;56.50;;;;;;4991003;28;20456;-78
2022/12/04 06:56:00;;;;;;;23.97;14.40;;;12.70;56.60;;;;;;4992997;28;20453;-78
2022/12/04 06:58:28;;;;;;;24.33;14.23;;;12.70;56.70;;;;;;4986089;28;20477;-79
2022/12/04 07:00:56;;;;;;;23.80;14.67;;;12.70;56.60;;;;;;4992414;28;20516;-79
2022/12/04 07:03:23;;;;;;;23.60;15.10;;;12.70;56.70;;;;;;4985560;28;20461;-79
2022/12/04 07:05:52;;;;;;;20.70;13.10;;;12.70;56.80;;;;;;4992132;28;20459;-80
2022/12/04 07:08:21;;;;;;;20.40;13.37;;;12.70;56.70;;;;;;4992966;28;20571;-80
2022/12/04 07:10:49;;;;;;;21.57;13.83;;;12.70;56.70;;;;;;4989766;28;20464;-80
2022/12/04 07:13:25;;;;;;;25.77;15.80;;;12.70;56.80;;;;;;4992222;28;20476;-79
2022/12/04 07:15:53;;;;;;;22.30;13.87;;;12.70;56.80;;;;;;4991319;28;20789;-80
2022/12/04 07:18:21;;;;;;;22.43;14.50;;;12.70;56.60;;;;;;4994012;28;20485;-79
2022/12/04 07:20:49;;;;;;;22.77;13.70;;;12.70;56.80;;;;;;4993113;28;20469;-79
2022/12/04 07:23:18;;;;;;;23.00;14.47;;;12.70;56.80;;;;;;4992611;28;20446;-80
2022/12/04 07:25:46;;;;;;;19.73;13.50;;;12.70;56.80;;;;;;4992210;28;20458;-80
2022/12/04 07:28:14;;;;;;;23.90;14.53;;;12.70;56.80;;;;;;4992989;28;20968;-79
2022/12/04 07:30:42;;;;;;;26.57;15.27;;;12.70;56.80;;;;;;4993623;28;20476;-80
2022/12/04 07:33:10;;;;;;;20.23;12.83;;;12.70;56.80;;;;;;4987543;28;20480;-80
2022/12/04 07:35:38;;;;;;;24.17;14.17;;;12.70;56.90;;;;;;4988674;28;20531;-80
2022/12/04 07:38:06;;;;;;;22.60;13.60;;;12.70;56.80;;;;;;4984708;28;20478;-79
2022/12/04 07:40:36;;;;;;;24.03;14.00;;;12.70;56.90;;;;;;4992794;28;20445;-79
2022/12/04 07:43:05;;;;;;;22.77;13.70;;;12.70;56.80;;;;;;4992398;28;20457;-80
2022/12/04 07:45:33;;;;;;;21.13;13.50;;;12.70;56.80;;;;;;4994373;28;20704;-79
2022/12/04 07:48:01;;;;;;;21.10;14.00;;;12.70;56.90;;;;;;4991469;28;20511;-79
2022/12/04 07:50:29;;;;;;;21.33;13.83;;;12.70;57.00;;;;;;4996690;28;20492;-80
2022/12/04 07:52:57;;;;;;;21.57;13.47;;;12.80;57.00;;;;;;4998368;28;20473;-80
2022/12/04 07:55:25;;;;;;;23.40;14.10;;;12.70;56.90;;;;;;4994614;28;20549;-79
2022/12/04 07:57:55;;;;;;;22.43;13.80;;;12.80;57.10;;;;;;4993360;28;20473;-79
2022/12/04 08:00:23;;;;;;;20.83;13.60;;;12.70;57.00;;;;;;4992973;28;20472;-78
2022/12/04 08:02:51;;;;;;;24.63;14.77;;;12.80;57.00;;;;;;4989803;28;20453;-78
2022/12/04 08:05:19;;;;;;;20.77;12.70;;;12.70;57.10;;;;;;4994021;28;20461;-78
2022/12/04 08:07:47;;;;;;;21.63;13.67;;;12.80;57.10;;;;;;4990985;28;20501;-78
2022/12/04 08:10:15;;;;;;;22.53;13.57;;;12.80;57.20;;;;;;4991117;28;20504;-79
2022/12/04 08:12:43;;;;;;;20.77;12.83;;;12.80;57.20;;;;;;4992650;28;20481;-78
2022/12/04 08:15:12;;;;;;;19.70;12.53;;;12.80;57.20;;;;;;4993100;28;20461;-78
2022/12/04 08:17:40;;;;;;;20.60;13.37;;;12.80;57.20;;;;;;4993813;28;20481;-79
2022/12/04 08:20:09;;;;;;;20.90;13.00;;;12.80;57.30;;;;;;4991337;28;20460;-78
2022/12/04 08:22:37;;;;;;;20.47;13.17;;;12.80;57.20;;;;;;4994568;28;20453;-79
2022/12/04 08:25:06;;;;;;;21.43;13.10;;;12.80;57.20;;;;;;4988396;28;20454;-78
2022/12/04 08:27:34;;;;;;;20.90;13.47;;;12.80;57.20;;;;;;4989477;28;20484;-79
2022/12/04 08:30:02;;;;;;;21.73;13.97;;;12.80;57.30;;;;;;4991615;28;20461;-79
2022/12/04 08:32:32;;;;;;;21.93;13.67;;;12.80;57.20;;;;;;4995040;28;20473;-79
2022/12/04 08:35:00;;;;;;;20.53;12.80;;;12.90;57.20;;;;;;4995804;28;20824;-79
2022/12/04 08:37:27;;;;;;;20.00;13.00;;;12.90;57.20;;;;;;4993408;28;20477;-79
2022/12/04 08:39:57;;;;;;;21.57;12.50;;;12.90;57.30;;;;;;4995715;28;20461;-79
2022/12/04 08:42:25;;;;;;;20.30;12.90;;;12.90;57.20;;;;;;4988911;28;20453;-78
2022/12/04 08:44:52;;;;;;;20.77;13.27;;;12.90;57.20;;;;;;4992965;28;20477;-79
2022/12/04 08:47:20;;;;;;;20.63;13.60;;;12.90;57.40;;;;;;4995223;28;20480;-78
2022/12/04 08:49:50;;;;;;;22.13;13.07;;;12.90;57.30;;;;;;4990643;28;20533;-78
2022/12/04 08:52:18;;;;;;;21.83;13.43;;;12.90;57.30;;;;;;4990075;28;20474;-77
2022/12/04 08:54:46;;;;;;;22.20;13.33;;;13.00;57.40;;;;;;4991505;28;20449;-78
2022/12/04 08:57:14;;;;;;;19.10;13.00;;;13.00;57.40;;;;;;4994533;28;20473;-78
2022/12/04 08:59:42;;;;;;;20.53;12.70;;;13.00;57.30;;;;;;4993726;28;20457;-79
2022/12/04 09:02:11;;;;;;;24.13;13.63;;;13.00;57.40;;;;;;4989142;28;20460;-78
2022/12/04 09:04:39;;;;;;;18.40;12.40;;;13.00;57.40;;;;;;4993743;28;20453;-78
2022/12/04 09:07:09;;;;;;;22.00;13.23;;;13.00;57.40;;;;;;4992914;28;20479;-78
2022/12/04 09:09:37;;;;;;;19.73;13.10;;;13.00;57.40;;;;;;4988331;28;20461;-78
2022/12/04 09:12:11;;;;;;;21.70;13.40;;;13.00;57.30;;;;;;4989826;28;20445;-79
2022/12/04 09:14:39;;;;;;;21.10;13.03;;;13.00;57.30;;;;;;4994039;28;20453;-78
2022/12/04 09:17:07;;;;;;;20.30;12.80;;;13.10;57.30;;;;;;4991488;28;20485;-79
2022/12/04 09:19:36;;;;;;;20.80;13.43;;;13.10;57.30;;;;;;4989909;28;20504;-79
2022/12/04 09:22:03;;;;;;;19.10;12.97;;;13.10;57.50;;;;;;4994426;28;20461;-78
2022/12/04 09:24:33;;;;;;;20.87;13.23;;;13.10;57.40;;;;;;4993826;28;20458;-79
2022/12/04 09:27:01;;;;;;;20.20;12.63;;;13.10;57.40;;;;;;4993430;28;20484;-78
2022/12/04 09:29:29;;;;;;;19.33;12.80;;;13.10;57.20;;;;;;4993295;28;20457;-78
2022/12/04 09:31:57;;;;;;;18.43;12.17;;;13.10;57.30;;;;;;4992893;28;20458;-79
2022/12/04 09:34:25;;;;;;;22.93;13.80;;;13.10;57.40;;;;;;4992692;28;20492;-79
2022/12/04 09:36:53;;;;;;;19.20;12.63;;;13.20;57.40;;;;;;4990330;28;20500;-79
2022/12/04 09:39:22;;;;;;;20.33;12.60;;;13.20;57.40;;;;;;4994148;28;20454;-79
2022/12/04 09:41:58;;;;;;;21.57;12.83;;;13.20;57.50;;;;;;4991734;28;20457;-78
2022/12/04 09:44:28;;;;;;;20.33;12.90;;;13.20;57.40;;;;;;4992728;28;20460;-79
2022/12/04 09:46:59;;;;;;;20.90;13.10;;;13.20;57.60;;;;;;4994480;28;20488;-79
2022/12/04 09:49:29;;;;;;;21.70;13.30;;;13.20;57.40;;;;;;4994487;28;20485;-79
2022/12/04 09:51:59;;;;;;;21.53;13.50;;;13.20;57.40;;;;;;4984459;28;20454;-79
2022/12/04 09:54:29;;;;;;;21.27;12.97;;;13.20;57.40;;;;;;4989472;28;20480;-78
2022/12/04 09:57:01;;;;;;;20.60;12.80;;;13.20;57.40;;;;;;4992770;28;20477;-81
2022/12/04 09:59:30;;;;;;;19.50;12.67;;;13.20;57.50;;;;;;4992220;28;20468;-79
2022/12/04 10:02:00;;;;;;;20.30;13.23;;;13.20;57.60;;;;;;4994219;28;20445;-78
2022/12/04 10:04:28;;;;;;;20.67;13.27;;;13.20;57.50;;;;;;4990876;28;20460;-79
2022/12/04 10:07:01;;;;;;;20.47;13.17;;;13.20;58.20;;;;;;4988435;28;20473;-78
2022/12/04 10:09:31;;;;;;;19.53;12.50;;;13.20;57.60;;;;;;4991070;28;20468;-79
2022/12/04 10:12:05;;;;;;;20.70;12.87;;;13.30;57.60;;;;;;4990594;28;20457;-78
2022/12/04 10:14:48;;;;;;;22.33;13.93;;;13.30;57.60;;;;;;4990184;28;20477;-80
2022/12/04 10:17:23;;;;;;;19.67;12.80;;;13.30;57.60;;;;;;4994426;28;20493;-78
2022/12/04 10:20:02;;;;;;;21.27;13.50;;;13.30;57.60;;;;;;4995617;28;20441;-78
2022/12/04 10:22:33;;;;;;;22.20;13.70;;;13.40;57.60;;;;;;4995766;28;20451;-79
2022/12/04 10:25:05;;;;;;;22.50;14.07;;;13.40;57.60;;;;;;4995772;28;20458;-78
2022/12/04 10:27:36;;;;;;;21.63;13.77;;;13.40;57.70;;;;;;4997828;28;20464;-79
2022/12/04 10:30:07;;;;;;;22.47;14.00;;;13.30;57.60;;;;;;4998689;28;20449;-78
2022/12/04 10:32:35;;;;;;;23.17;13.70;;;13.40;57.80;;;;;;4999010;28;20456;-78
2022/12/04 10:35:08;;;;;;;20.03;13.00;;;13.40;57.80;;;;;;5012872;28;20510;-79
2022/12/04 10:37:39;;;;;;;22.03;13.17;;;13.40;57.80;;;;;;4997368;28;20444;-80
2022/12/04 10:40:09;;;;;;;23.23;14.37;;;13.40;57.70;;;;;;5005899;28;20424;-80
2022/12/04 10:42:41;;;;;;;20.67;13.60;;;13.40;57.80;;;;;;5014646;28;20453;-80
2022/12/04 10:45:09;;;;;;;19.17;13.07;;;13.40;57.80;;;;;;5013977;28;20433;-79
2022/12/04 10:47:37;;;;;;;22.40;14.10;;;13.50;57.90;;;;;;4999099;28;20464;-79
2022/12/04 10:50:14;;;;;;;21.07;13.53;;;13.50;57.80;;;;;;5000236;28;20449;-79
2022/12/04 10:52:42;;;;;;;21.90;13.67;;;13.50;58.40;;;;;;5015094;28;20406;-79
2022/12/04 10:55:10;;;;;;;21.97;13.00;;;13.50;57.70;;;;;;5012826;28;20477;-80
2022/12/04 10:57:40;;;;;;;20.20;12.53;;;13.50;57.70;;;;;;4997871;28;20469;-80
2022/12/04 11:00:25;;;;;;;25.27;14.37;;;13.50;57.90;;;;;;4992883;28;20434;-79
2022/12/04 11:02:54;;;;;;;21.33;14.03;;;13.50;57.80;;;;;;5005301;28;20450;-79
2022/12/04 11:05:24;;;;;;;22.17;13.13;;;13.50;58.00;;;;;;5002419;28;20446;-80
2022/12/04 11:07:53;;;;;;;21.23;13.23;;;13.50;57.90;;;;;;4999593;28;20465;-78
2022/12/04 11:10:22;;;;;;;21.33;13.47;;;13.50;58.10;;;;;;5002604;28;20440;-79
2022/12/04 11:12:56;;;;;;;19.47;13.17;;;13.50;58.00;;;;;;5007929;28;20452;-79
2022/12/04 11:15:24;;;;;;;21.00;13.53;;;13.50;58.00;;;;;;5001216;28;20477;-80
2022/12/04 11:17:52;;;;;;;20.27;13.20;;;13.50;58.00;;;;;;5001907;28;20488;-79
2022/12/04 11:20:21;;;;;;;22.17;13.37;;;13.50;58.10;;;;;;4994958;28;20452;-80
2022/12/04 11:22:51;;;;;;;21.97;13.47;;;13.50;58.00;;;;;;4996413;28;20919;-78
2022/12/04 11:25:19;;;;;;;17.90;12.40;;;13.50;58.00;;;;;;4994480;28;20445;-78
2022/12/04 11:27:49;;;;;;;20.80;13.30;;;13.50;58.00;;;;;;4993807;28;20469;-78
2022/12/04 11:30:21;;;;;;;20.17;12.93;;;13.50;58.10;;;;;;4993322;28;20444;-78
2022/12/04 11:32:49;;;;;;;19.37;13.07;;;13.60;58.10;;;;;;4993349;28;20456;-79
2022/12/04 11:35:20;;;;;;;19.40;12.70;;;13.50;58.10;;;;;;4992890;28;20477;-78
2022/12/04 11:37:52;;;;;;;19.13;12.40;;;13.60;58.20;;;;;;4997963;28;20478;-78
2022/12/04 11:40:20;;;;;;;20.80;12.93;;;13.50;58.10;;;;;;4994454;28;20445;-80
2022/12/04 11:42:58;;;;;;;19.57;12.97;;;13.50;58.20;;;;;;4994332;28;20450;-79
2022/12/04 11:45:27;;;;;;;20.23;12.90;;;13.60;58.20;;;;;;4986315;28;20441;-79
2022/12/04 11:47:56;;;;;;;19.43;12.70;;;13.60;58.20;;;;;;4980971;28;20477;-79
2022/12/04 11:50:29;;;;;;;18.57;12.23;;;13.60;58.20;;;;;;4990575;28;20466;-78
2022/12/04 11:53:04;;;;;;;20.73;13.47;;;13.60;58.20;;;;;;4993148;28;20445;-77
2022/12/04 11:55:34;;;;;;;19.30;12.00;;;13.60;58.10;;;;;;4994131;28;20476;-77
2022/12/04 11:58:13;;;;;;;18.93;12.67;;;13.60;58.30;;;;;;4995406;28;20476;-79
2022/12/04 12:00:45;;;;;;;19.00;11.93;;;13.60;58.20;;;;;;4994591;28;20457;-78
2022/12/04 12:03:14;;;;;;;19.37;12.30;;;13.60;58.30;;;;;;4984881;28;20481;-78
2022/12/04 12:06:18;;;;;;;16.40;11.53;;;13.60;58.30;;;;;;4993203;28;20491;-78
2022/12/04 12:08:55;;;;;;;21.97;12.43;;;13.70;58.40;;;;;;4983968;28;20455;-78
2022/12/04 12:11:25;;;;;;;18.60;12.30;;;13.70;58.40;;;;;;4993686;28;20436;-78
2022/12/04 12:13:58;;;;;;;17.07;11.40;;;13.60;58.20;;;;;;4995740;28;20453;-79
2022/12/04 12:16:31;;;;;;;19.83;12.80;;;13.60;58.40;;;;;;4996148;28;20461;-80
2022/12/04 12:19:11;;;;;;;19.40;12.50;;;13.60;58.30;;;;;;4995512;28;20500;-79
2022/12/04 12:21:46;;;;;;;19.30;12.47;;;13.60;58.30;;;;;;4994249;28;20436;-77
2022/12/04 12:24:25;;;;;;;21.90;13.10;;;13.60;58.30;;;;;;4996005;28;20418;-79
2022/12/04 12:26:56;;;;;;;18.90;12.63;;;13.60;58.40;;;;;;5000170;28;20472;-80
2022/12/04 12:29:35;;;;;;;18.27;12.10;;;13.60;58.40;;;;;;4998269;28;20456;-79
2022/12/04 12:32:17;;;;;;;19.07;11.70;;;13.70;58.50;;;;;;5002487;28;20422;-79
2022/12/04 12:34:45;;;;;;;19.30;12.30;;;13.60;58.30;;;;;;5003401;28;20976;-79
2022/12/04 12:37:19;;;;;;;20.57;12.43;;;13.60;58.40;;;;;;5004297;28;20462;-79
2022/12/04 12:39:50;;;;;;;20.57;12.80;;;13.60;58.40;;;;;;5004289;28;20449;-80
2022/12/04 12:42:20;;;;;;;16.93;11.30;;;13.70;58.30;;;;;;4998678;28;20645;-80
2022/12/04 12:44:51;;;;;;;16.90;11.47;;;13.70;58.40;;;;;;5002010;28;20453;-79
2022/12/04 12:47:22;;;;;;;20.47;12.43;;;13.70;58.30;;;;;;4996635;28;20470;-79
2022/12/04 12:49:53;;;;;;;19.60;12.30;;;13.70;58.40;;;;;;5003763;28;20469;-79
2022/12/04 12:52:27;;;;;;;20.50;13.37;;;13.70;58.40;;;;;;5001244;28;20452;-78
2022/12/04 12:54:57;;;;;;;22.30;13.67;;;13.70;58.40;;;;;;4998499;28;20560;-78